Aeroporto :
LOGIN :

Iscrizione | Disclaimer

   EN    FR    IT 

 










Sommario :    VFR   VFR Marginale   IFR   IFR Intensivo   IFR Molto Intensivo
Visibilità : 
Base nubi : 
>= 8 km
>= 3000ft
5 / 8 km
1000 / 3000 ft
1500m / 5 km
500 / 1000 ft
800 / 1500m
200 / 500 ft
< 800m
< 200 ft
Simboli :   Temporali  Nebbia  Neve Forte  Precipitazioni Forti  Vento > 20 kt
SIGMETs :   Varie  Temporali  Ghiacco  Turbolenza  Onda orograficha  Ceneri Vulcaniche







- Altitudine del aeroporto : 209 ft
- Codice IATA : CLY
- Carte del aeroporto


LFKC - Calvi

ULTIMO METAR :
  • 151730Z AUTO 03012KT 9999 FEW020/// SCT034/// BKN043/// ///CB 22/18 Q1004 TEMPO 03015G25KT 4000 TSRA BECMG SCT040

METARs OBSOLETI :
  • 151700Z AUTO 03011KT 350V090 9999 VCTS BKN019/// BKN032/// BKN056/// ///CB 22/18 Q1004 TEMPO 03015G25KT 4000 TSRA
  • 151630Z AUTO 02010KT 9999 -TSRA FEW021/// SCT054/// BKN080/// ///CB 22/19 Q1004 TEMPO 03015G25KT 4000 TSRA
  • 151600Z AUTO 36014KT 9999 TSRA FEW023/// SCT049/// BKN066/// ///CB 23/19 Q1003 TEMPO 03015G25KT 4000 TSRA
  • 151530Z AUTO 36019KT 9999 TS FEW029/// SCT054/// BKN066/// ///CB 24/18 Q1002 TEMPO 03015G25KT 4000 TSRA
  • 151500Z AUTO VRB03KT 9999 FEW052/// BKN220/// ///CB 28/15 Q1002 TEMPO 03015G25KT 4000 TSRA

TAF TAF LFKC
Valido dal 15 a 15 ore il 16 a 15 ore UTC


151400Z 1515/1615 02010KT 9999 FEW025 BKN050 TX27/1609Z TN19/1604Z
TEMPO 1515/1519 03015G25KT 4000 TSRA SCT015 BKN025CB
BECMG 1519/1521 SCT040
TEMPO 1521/1607 18005KT
BECMG 1600/1602 CAVOK
ATIS : +33 4 95 65 82 49
Nessun NOTAM noto per questo aeroporto.
5 SIGMETs conosciuti per la FIR Marseille (LFMM) :
 
Temporali affogati
LFMM SIGMET 15 VALID 151800/152000 LFPW
LFMM MARSEILLE FIR/UIR EMBD TS OBS WI N4315 E00915 - N4315 E00945 - N4145 E00945 - N4130 E00800 - N4200 E00730 - N4315 E00915 TOP FL350 MOV SE 15KT NC=
Turbolenza severa
LFMM SIGMET 14 VALID 151800/152000 LFPW
LFMM MARSEILLE FIR/UIR SEV TURB FCST WI N4430 E00700 - N4400 E00700 - N4415 E00615 - N4430 E00700 SFC/FL100 STNR NC=
Cancellazione del SIGMET 11
LFMM SIGMET 13 VALID 151715/151900 LFPW
LFMM MARSEILLE FIR/UIR CNL SIGMET 11 151500/151900=
Temporali affogati
LFMM SIGMET 12 VALID 151600/151800 LFPW
LFMM MARSEILLE FIR/UIR EMBD TS OBS WI N4315 E00930 - N4315 E00945 - N4215 E00945 - N4145 E00745 - N4300 E00715 - N4315 E00930 TOP FL350 MOV SSE 15KT NC=
SIGMET 11  ANNULATO :
Turbolenza severa
LFMM SIGMET 11 VALID 151500/151900 LFPW
LFMM MARSEILLE FIR/UIR SEV TURB FCST WI N4300 E00515 - N4345 E00330 - N4445 E00330 - N4500 E00430 - N4400 E00515 - N4300 E00515 SFC/FL060 STNR WKN=



MetMap, La meteo Aeronautica in un colpo d'occhio ! - Copyright ORBIFLY Dicembre 2007 - Disclaimer

ORBIFLY MET'MAP TEAM :

Programmazione e sviluppo : Alexandra Zaïnal
Concezione e sviluppo : Baudouin d'Aumeries
Co-Programmazione e sviluppo : Marc-Olivier Méhu
Supporto tecnico e logistico : Manuel Goepfert
Aiuto per la traduzione : Arnaldo La Scala

Contatto : metmap@orbifly.com




FONTI E CREDITI :

   NOAA